Accueil
METAR-TAF:

METAR-TAF

Aéroports :

Aéroport Albert-Picardie

Albert, France

latitude: 49-58-21N, longitude: 002-41-29E, altitude: 111 m

Observation

Le bulletin a été fait il y a 30 minutes, à 16:00 UTC
Vent 5 kt de sud/sud-ouest
Température 1°C
Humidité 75%
Pression 1021 hPa
Visibilité: 9000 m

METAR: LFAQ 211600Z AUTO 21005KT 9000 NSC 01/M03 Q1021 NOSIG

Heure: 17:30 (16:30 UTC)

Prévision

Le bulletin a été fait il y a 2 heures et 30 minutes, à 14:00 UTC
Prévision valable du 21 à 15 UTC au 21 à 24 UTC
Vent 3 kt de direction variable
Visibilité 10 km ou plus
pas de nuages en-dessous de 1500 mètres et pas de cumulonimbus.
Evoluant progressivement
du 21 à 16 UTC au 21 à 20 UTC
Vent 7 kt de sud
Temporairement
du 21 à 18 UTC au 21 à 24 UTC
Visibilité: 4000 m
brume

TAF: LFAQ 211400Z 2115/2124 VRB03KT CAVOK BECMG 2116/2120 18007KT TEMPO 2118/2124 4000 BR

Observations et prévisions météorologiques de plus de 4000 aéroports (messages METAR et TAF).

Les stations disponibles sont représentées par des disques jaunes et rouges sur la carte.

Passer la souris dessus pour voir le nom de la station.

Cliquer dessus pour voir les observations et prévisions météorologiques.

Pour changer de carte: cliquez sur les boutons verts avec une croix noire pour zoomer, sur le bouton vert avec un tiret pour effectuer un zoom arrière, ou sur les flèches vertes pour les cartes adjacentes.


METAR-TAF: